sensor_id;sensor_type;location;lat;lon;timestamp;temperature;humidity
30186;DHT22;31152;49.190;8.122;2023-02-01T00:00:31;4.80;99.90
30186;DHT22;31152;49.190;8.122;2023-02-01T00:03:01;4.80;99.90
30186;DHT22;31152;49.190;8.122;2023-02-01T00:05:27;4.80;99.90
30186;DHT22;31152;49.190;8.122;2023-02-01T00:07:56;4.80;99.90
30186;DHT22;31152;49.190;8.122;2023-02-01T00:10:23;4.80;99.90
30186;DHT22;31152;49.190;8.122;2023-02-01T00:12:50;4.90;99.90
30186;DHT22;31152;49.190;8.122;2023-02-01T00:15:17;4.90;99.90
30186;DHT22;31152;49.190;8.122;2023-02-01T00:17:44;4.90;99.90
30186;DHT22;31152;49.190;8.122;2023-02-01T00:20:13;4.90;99.90
30186;DHT22;31152;49.190;8.122;2023-02-01T00:22:39;4.90;99.90
30186;DHT22;31152;49.190;8.122;2023-02-01T00:25:06;4.90;99.90
30186;DHT22;31152;49.190;8.122;2023-02-01T00:27:33;4.90;99.90
30186;DHT22;31152;49.190;8.122;2023-02-01T00:30:02;4.90;99.90
30186;DHT22;31152;49.190;8.122;2023-02-01T00:32:29;4.90;99.90
30186;DHT22;31152;49.190;8.122;2023-02-01T00:34:58;4.90;99.90
30186;DHT22;31152;49.190;8.122;2023-02-01T00:37:27;4.90;99.90
30186;DHT22;31152;49.190;8.122;2023-02-01T00:39:53;4.90;99.90
30186;DHT22;31152;49.190;8.122;2023-02-01T00:42:24;4.90;99.90
30186;DHT22;31152;49.190;8.122;2023-02-01T00:44:53;4.90;99.90
30186;DHT22;31152;49.190;8.122;2023-02-01T00:47:19;5.00;99.90
30186;DHT22;31152;49.190;8.122;2023-02-01T00:49:46;4.90;99.90
30186;DHT22;31152;49.190;8.122;2023-02-01T00:52:13;5.00;99.90
30186;DHT22;31152;49.190;8.122;2023-02-01T00:54:40;5.00;99.90
30186;DHT22;31152;49.190;8.122;2023-02-01T00:57:06;5.00;99.90
30186;DHT22;31152;49.190;8.122;2023-02-01T00:59:33;5.00;99.90
30186;DHT22;31152;49.190;8.122;2023-02-01T01:02:02;5.00;99.90
30186;DHT22;31152;49.190;8.122;2023-02-01T01:04:29;5.00;99.90
30186;DHT22;31152;49.190;8.122;2023-02-01T01:06:58;5.00;99.90
30186;DHT22;31152;49.190;8.122;2023-02-01T01:09:25;5.00;99.90
30186;DHT22;31152;49.190;8.122;2023-02-01T01:11:51;5.00;99.90
30186;DHT22;31152;49.190;8.122;2023-02-01T01:14:19;5.00;99.90
30186;DHT22;31152;49.190;8.122;2023-02-01T01:16:45;5.10;99.90
30186;DHT22;31152;49.190;8.122;2023-02-01T01:19:12;5.10;99.90
30186;DHT22;31152;49.190;8.122;2023-02-01T01:21:41;5.10;99.90
30186;DHT22;31152;49.190;8.122;2023-02-01T01:24:08;5.10;99.90
30186;DHT22;31152;49.190;8.122;2023-02-01T01:26:35;5.10;99.90
30186;DHT22;31152;49.190;8.122;2023-02-01T01:29:01;5.10;99.90
30186;DHT22;31152;49.190;8.122;2023-02-01T01:31:29;5.10;99.90
30186;DHT22;31152;49.190;8.122;2023-02-01T01:33:58;5.10;99.90
30186;DHT22;31152;49.190;8.122;2023-02-01T01:36:26;5.10;99.90
30186;DHT22;31152;49.190;8.122;2023-02-01T01:38:53;5.00;99.90
30186;DHT22;31152;49.190;8.122;2023-02-01T01:41:22;5.00;99.90
30186;DHT22;31152;49.190;8.122;2023-02-01T01:44:02;5.00;99.90
30186;DHT22;31152;49.190;8.122;2023-02-01T01:46:32;5.00;99.90
30186;DHT22;31152;49.190;8.122;2023-02-01T01:49:16;5.00;99.90
30186;DHT22;31152;49.190;8.122;2023-02-01T01:51:48;5.00;99.90
30186;DHT22;31152;49.190;8.122;2023-02-01T01:54:21;5.00;99.90
30186;DHT22;31152;49.190;8.122;2023-02-01T01:57:00;5.00;99.90
30186;DHT22;31152;49.190;8.122;2023-02-01T01:59:29;5.00;99.90
30186;DHT22;31152;49.190;8.122;2023-02-01T02:02:00;5.00;99.90
30186;DHT22;31152;49.190;8.122;2023-02-01T02:04:27;5.00;99.90
30186;DHT22;31152;49.190;8.122;2023-02-01T02:07:14;5.00;99.90
30186;DHT22;31152;49.190;8.122;2023-02-01T02:09:42;5.00;99.90
30186;DHT22;31152;49.190;8.122;2023-02-01T02:12:26;5.00;99.90
30186;DHT22;31152;49.190;8.122;2023-02-01T02:14:53;5.00;99.90
30186;DHT22;31152;49.190;8.122;2023-02-01T02:17:54;5.00;99.90
30186;DHT22;31152;49.190;8.122;2023-02-01T02:26:42;5.10;99.90
30186;DHT22;31152;49.190;8.122;2023-02-01T02:37:52;5.20;99.90
30186;DHT22;31152;49.190;8.122;2023-02-01T02:40:27;5.30;99.90
30186;DHT22;31152;49.190;8.122;2023-02-01T02:43:09;5.50;99.90
30186;DHT22;31152;49.190;8.122;2023-02-01T02:46:01;5.60;99.90
30186;DHT22;31152;49.190;8.122;2023-02-01T02:49:02;5.70;99.90
30186;DHT22;31152;49.190;8.122;2023-02-01T02:51:43;5.70;99.90
30186;DHT22;31152;49.190;8.122;2023-02-01T02:54:35;5.70;99.90
30186;DHT22;31152;49.190;8.122;2023-02-01T02:57:20;5.70;99.90
30186;DHT22;31152;49.190;8.122;2023-02-01T03:00:14;5.80;99.90
30186;DHT22;31152;49.190;8.122;2023-02-01T03:03:01;5.80;99.90
30186;DHT22;31152;49.190;8.122;2023-02-01T03:05:48;5.80;99.90
30186;DHT22;31152;49.190;8.122;2023-02-01T03:08:19;5.80;99.90
30186;DHT22;31152;49.190;8.122;2023-02-01T03:11:15;5.90;99.90
30186;DHT22;31152;49.190;8.122;2023-02-01T03:13:55;5.90;99.90
30186;DHT22;31152;49.190;8.122;2023-02-01T03:16:24;5.80;99.90
30186;DHT22;31152;49.190;8.122;2023-02-01T03:21:36;5.90;99.90
30186;DHT22;31152;49.190;8.122;2023-02-01T03:24:14;5.90;99.90
30186;DHT22;31152;49.190;8.122;2023-02-01T03:26:53;5.90;99.90
30186;DHT22;31152;49.190;8.122;2023-02-01T03:29:32;5.90;99.90
30186;DHT22;31152;49.190;8.122;2023-02-01T03:32:01;5.90;99.90
30186;DHT22;31152;49.190;8.122;2023-02-01T03:34:28;5.90;99.90
30186;DHT22;31152;49.190;8.122;2023-02-01T03:37:05;5.90;99.90
30186;DHT22;31152;49.190;8.122;2023-02-01T03:39:39;5.90;99.90
30186;DHT22;31152;49.190;8.122;2023-02-01T03:42:16;6.00;99.90
30186;DHT22;31152;49.190;8.122;2023-02-01T03:47:27;6.00;99.90
30186;DHT22;31152;49.190;8.122;2023-02-01T03:49:59;5.90;99.90
30186;DHT22;31152;49.190;8.122;2023-02-01T03:55:05;5.80;99.90
30186;DHT22;31152;49.190;8.122;2023-02-01T03:57:37;5.80;99.90
30186;DHT22;31152;49.190;8.122;2023-02-01T04:00:06;5.80;99.90
30186;DHT22;31152;49.190;8.122;2023-02-01T04:02:34;5.80;99.90
30186;DHT22;31152;49.190;8.122;2023-02-01T04:05:03;5.80;99.90
30186;DHT22;31152;49.190;8.122;2023-02-01T04:07:30;5.90;99.90
30186;DHT22;31152;49.190;8.122;2023-02-01T04:09:57;5.90;99.90
30186;DHT22;31152;49.190;8.122;2023-02-01T04:12:24;5.80;99.90
30186;DHT22;31152;49.190;8.122;2023-02-01T04:14:55;5.80;99.90
30186;DHT22;31152;49.190;8.122;2023-02-01T04:17:24;5.80;99.90
30186;DHT22;31152;49.190;8.122;2023-02-01T04:19:52;5.80;99.90
30186;DHT22;31152;49.190;8.122;2023-02-01T04:22:21;5.80;99.90
30186;DHT22;31152;49.190;8.122;2023-02-01T04:24:48;5.80;99.90
30186;DHT22;31152;49.190;8.122;2023-02-01T04:27:15;5.80;99.90
30186;DHT22;31152;49.190;8.122;2023-02-01T04:29:41;5.80;99.90
30186;DHT22;31152;49.190;8.122;2023-02-01T04:32:08;5.70;99.90
30186;DHT22;31152;49.190;8.122;2023-02-01T04:34:37;5.70;99.90
30186;DHT22;31152;49.190;8.122;2023-02-01T04:37:04;5.70;99.90
30186;DHT22;31152;49.190;8.122;2023-02-01T04:39:33;5.70;99.90
30186;DHT22;31152;49.190;8.122;2023-02-01T04:42:00;5.60;99.90
30186;DHT22;31152;49.190;8.122;2023-02-01T04:44:27;5.70;99.90
30186;DHT22;31152;49.190;8.122;2023-02-01T04:46:54;5.60;99.90
30186;DHT22;31152;49.190;8.122;2023-02-01T04:49:23;5.60;99.90
30186;DHT22;31152;49.190;8.122;2023-02-01T04:51:52;5.60;99.90
30186;DHT22;31152;49.190;8.122;2023-02-01T04:54:18;5.60;99.90
30186;DHT22;31152;49.190;8.122;2023-02-01T04:56:45;5.60;99.90
30186;DHT22;31152;49.190;8.122;2023-02-01T04:59:14;5.70;99.90
30186;DHT22;31152;49.190;8.122;2023-02-01T05:01:43;5.70;99.90
30186;DHT22;31152;49.190;8.122;2023-02-01T05:04:14;5.80;99.90
30186;DHT22;31152;49.190;8.122;2023-02-01T05:06:41;5.80;99.90
30186;DHT22;31152;49.190;8.122;2023-02-01T05:09:08;5.90;99.90
30186;DHT22;31152;49.190;8.122;2023-02-01T05:11:34;5.90;99.90
30186;DHT22;31152;49.190;8.122;2023-02-01T05:14:20;5.90;99.90
30186;DHT22;31152;49.190;8.122;2023-02-01T05:16:47;5.90;99.90
30186;DHT22;31152;49.190;8.122;2023-02-01T05:19:13;5.90;99.90
30186;DHT22;31152;49.190;8.122;2023-02-01T05:21:40;6.00;99.90
30186;DHT22;31152;49.190;8.122;2023-02-01T05:24:08;6.00;99.90
30186;DHT22;31152;49.190;8.122;2023-02-01T05:26:48;6.00;99.90
30186;DHT22;31152;49.190;8.122;2023-02-01T05:29:17;6.00;99.90
30186;DHT22;31152;49.190;8.122;2023-02-01T05:31:45;6.00;99.90
30186;DHT22;31152;49.190;8.122;2023-02-01T05:34:13;6.00;99.90
30186;DHT22;31152;49.190;8.122;2023-02-01T05:36:42;6.00;99.90
30186;DHT22;31152;49.190;8.122;2023-02-01T05:39:09;6.10;99.90
30186;DHT22;31152;49.190;8.122;2023-02-01T05:41:37;6.00;99.90
30186;DHT22;31152;49.190;8.122;2023-02-01T05:44:08;6.00;99.90
30186;DHT22;31152;49.190;8.122;2023-02-01T05:46:35;6.00;99.90
30186;DHT22;31152;49.190;8.122;2023-02-01T05:49:02;6.00;99.90
30186;DHT22;31152;49.190;8.122;2023-02-01T05:51:32;6.00;99.90
30186;DHT22;31152;49.190;8.122;2023-02-01T05:53:59;5.90;99.90
30186;DHT22;31152;49.190;8.122;2023-02-01T05:56:26;5.90;99.90
30186;DHT22;31152;49.190;8.122;2023-02-01T05:58:53;5.90;99.90
30186;DHT22;31152;49.190;8.122;2023-02-01T06:01:22;5.90;99.90
30186;DHT22;31152;49.190;8.122;2023-02-01T06:03:51;5.90;99.90
30186;DHT22;31152;49.190;8.122;2023-02-01T06:06:25;5.90;99.90
30186;DHT22;31152;49.190;8.122;2023-02-01T06:08:52;5.90;99.90
30186;DHT22;31152;49.190;8.122;2023-02-01T06:11:19;5.90;99.90
30186;DHT22;31152;49.190;8.122;2023-02-01T06:13:58;5.90;99.90
30186;DHT22;31152;49.190;8.122;2023-02-01T06:16:25;5.90;99.90
30186;DHT22;31152;49.190;8.122;2023-02-01T06:18:54;5.90;99.90
30186;DHT22;31152;49.190;8.122;2023-02-01T06:21:21;5.90;99.90
30186;DHT22;31152;49.190;8.122;2023-02-01T06:23:52;5.90;99.90
30186;DHT22;31152;49.190;8.122;2023-02-01T06:26:24;6.00;99.90
30186;DHT22;31152;49.190;8.122;2023-02-01T06:28:51;6.00;99.90
30186;DHT22;31152;49.190;8.122;2023-02-01T06:31:18;6.10;99.90
30186;DHT22;31152;49.190;8.122;2023-02-01T06:33:45;6.00;99.90
30186;DHT22;31152;49.190;8.122;2023-02-01T06:36:13;6.00;99.90
30186;DHT22;31152;49.190;8.122;2023-02-01T06:38:41;6.00;99.90
30186;DHT22;31152;49.190;8.122;2023-02-01T06:41:09;6.00;99.90
30186;DHT22;31152;49.190;8.122;2023-02-01T06:43:36;6.00;99.90
30186;DHT22;31152;49.190;8.122;2023-02-01T06:46:07;6.10;99.90
30186;DHT22;31152;49.190;8.122;2023-02-01T06:48:34;6.20;99.90
30186;DHT22;31152;49.190;8.122;2023-02-01T06:51:01;6.20;99.90
30186;DHT22;31152;49.190;8.122;2023-02-01T06:53:30;6.20;99.90
30186;DHT22;31152;49.190;8.122;2023-02-01T06:56:02;6.30;99.90
30186;DHT22;31152;49.190;8.122;2023-02-01T06:58:30;6.30;99.90
30186;DHT22;31152;49.190;8.122;2023-02-01T07:00:57;6.30;99.90
30186;DHT22;31152;49.190;8.122;2023-02-01T07:03:27;6.30;99.90
30186;DHT22;31152;49.190;8.122;2023-02-01T07:05:59;6.40;99.90
30186;DHT22;31152;49.190;8.122;2023-02-01T07:08:30;6.50;99.90
30186;DHT22;31152;49.190;8.122;2023-02-01T07:11:04;6.40;99.90
30186;DHT22;31152;49.190;8.122;2023-02-01T07:13:33;6.40;99.90
30186;DHT22;31152;49.190;8.122;2023-02-01T07:16:02;6.40;99.90
30186;DHT22;31152;49.190;8.122;2023-02-01T07:18:30;6.30;99.90
30186;DHT22;31152;49.190;8.122;2023-02-01T07:20:57;6.30;99.90
30186;DHT22;31152;49.190;8.122;2023-02-01T07:23:24;6.30;99.90
30186;DHT22;31152;49.190;8.122;2023-02-01T07:25:59;6.20;99.90
30186;DHT22;31152;49.190;8.122;2023-02-01T07:28:27;6.30;99.90
30186;DHT22;31152;49.190;8.122;2023-02-01T07:30:54;6.20;99.90
30186;DHT22;31152;49.190;8.122;2023-02-01T07:33:23;6.20;99.90
30186;DHT22;31152;49.190;8.122;2023-02-01T07:35:53;6.20;99.90
30186;DHT22;31152;49.190;8.122;2023-02-01T07:38:23;6.20;99.90
30186;DHT22;31152;49.190;8.122;2023-02-01T07:40:50;6.20;99.90
30186;DHT22;31152;49.190;8.122;2023-02-01T07:43:17;6.20;99.90
30186;DHT22;31152;49.190;8.122;2023-02-01T07:45:50;6.20;99.90
30186;DHT22;31152;49.190;8.122;2023-02-01T07:48:22;6.30;99.90
30186;DHT22;31152;49.190;8.122;2023-02-01T07:51:00;6.20;99.90
30186;DHT22;31152;49.190;8.122;2023-02-01T07:53:29;6.30;99.90
30186;DHT22;31152;49.190;8.122;2023-02-01T07:55:56;6.30;99.90
30186;DHT22;31152;49.190;8.122;2023-02-01T07:58:24;6.30;99.90
30186;DHT22;31152;49.190;8.122;2023-02-01T08:00:54;6.30;99.90
30186;DHT22;31152;49.190;8.122;2023-02-01T08:03:43;6.20;99.90
30186;DHT22;31152;49.190;8.122;2023-02-01T08:06:10;6.30;99.90
30186;DHT22;31152;49.190;8.122;2023-02-01T08:08:36;6.20;99.90
30186;DHT22;31152;49.190;8.122;2023-02-01T08:11:07;6.20;99.90
30186;DHT22;31152;49.190;8.122;2023-02-01T08:13:34;6.30;99.90
30186;DHT22;31152;49.190;8.122;2023-02-01T08:16:04;6.30;99.90
30186;DHT22;31152;49.190;8.122;2023-02-01T08:18:32;6.30;99.90
30186;DHT22;31152;49.190;8.122;2023-02-01T08:21:14;6.30;99.90
30186;DHT22;31152;49.190;8.122;2023-02-01T08:23:41;6.30;99.90
30186;DHT22;31152;49.190;8.122;2023-02-01T08:26:12;6.30;99.90
30186;DHT22;31152;49.190;8.122;2023-02-01T08:28:43;6.30;99.90
30186;DHT22;31152;49.190;8.122;2023-02-01T08:31:13;6.20;99.90
30186;DHT22;31152;49.190;8.122;2023-02-01T08:33:47;6.20;99.90
30186;DHT22;31152;49.190;8.122;2023-02-01T08:36:17;6.20;99.90
30186;DHT22;31152;49.190;8.122;2023-02-01T08:38:46;6.20;99.90
30186;DHT22;31152;49.190;8.122;2023-02-01T08:41:18;6.30;99.90
30186;DHT22;31152;49.190;8.122;2023-02-01T08:43:48;6.30;99.90
30186;DHT22;31152;49.190;8.122;2023-02-01T08:46:16;6.40;99.90
30186;DHT22;31152;49.190;8.122;2023-02-01T08:48:44;6.40;99.90
30186;DHT22;31152;49.190;8.122;2023-02-01T08:51:13;6.40;99.90
30186;DHT22;31152;49.190;8.122;2023-02-01T08:53:41;6.40;99.90
30186;DHT22;31152;49.190;8.122;2023-02-01T08:56:09;6.40;99.90
30186;DHT22;31152;49.190;8.122;2023-02-01T08:58:36;6.50;99.90
30186;DHT22;31152;49.190;8.122;2023-02-01T09:01:05;6.50;99.90
30186;DHT22;31152;49.190;8.122;2023-02-01T09:03:35;6.50;99.90
30186;DHT22;31152;49.190;8.122;2023-02-01T09:06:06;6.60;99.90
30186;DHT22;31152;49.190;8.122;2023-02-01T09:08:34;6.60;99.90
30186;DHT22;31152;49.190;8.122;2023-02-01T09:11:05;6.60;99.90
30186;DHT22;31152;49.190;8.122;2023-02-01T09:13:32;6.60;99.90
30186;DHT22;31152;49.190;8.122;2023-02-01T09:16:00;6.60;99.90
30186;DHT22;31152;49.190;8.122;2023-02-01T09:18:27;6.60;99.90
30186;DHT22;31152;49.190;8.122;2023-02-01T09:20:53;6.60;99.90
30186;DHT22;31152;49.190;8.122;2023-02-01T09:23:20;6.60;99.90
30186;DHT22;31152;49.190;8.122;2023-02-01T09:25:47;6.70;99.90
30186;DHT22;31152;49.190;8.122;2023-02-01T09:28:17;6.60;99.90
30186;DHT22;31152;49.190;8.122;2023-02-01T09:30:44;6.60;99.90
30186;DHT22;31152;49.190;8.122;2023-02-01T09:33:11;6.60;99.90
30186;DHT22;31152;49.190;8.122;2023-02-01T09:35:40;6.70;99.90
30186;DHT22;31152;49.190;8.122;2023-02-01T09:38:07;6.60;99.90
30186;DHT22;31152;49.190;8.122;2023-02-01T09:40:35;6.70;99.90
30186;DHT22;31152;49.190;8.122;2023-02-01T09:43:28;6.70;99.90
30186;DHT22;31152;49.190;8.122;2023-02-01T09:45:59;6.70;99.90
30186;DHT22;31152;49.190;8.122;2023-02-01T09:48:35;6.70;99.90
30186;DHT22;31152;49.190;8.122;2023-02-01T09:51:06;6.70;99.90
30186;DHT22;31152;49.190;8.122;2023-02-01T09:53:38;6.70;99.90
30186;DHT22;31152;49.190;8.122;2023-02-01T09:56:14;6.70;99.90
30186;DHT22;31152;49.190;8.122;2023-02-01T09:59:01;6.70;99.90
30186;DHT22;31152;49.190;8.122;2023-02-01T10:01:32;6.70;99.90
30186;DHT22;31152;49.190;8.122;2023-02-01T10:04:05;6.80;99.90
30186;DHT22;31152;49.190;8.122;2023-02-01T10:18:05;6.90;99.90
30186;DHT22;31152;49.190;8.122;2023-02-01T10:20:57;6.90;99.90
30186;DHT22;31152;49.190;8.122;2023-02-01T10:26:22;6.90;99.90
30186;DHT22;31152;49.190;8.122;2023-02-01T10:29:01;6.90;99.90
30186;DHT22;31152;49.190;8.122;2023-02-01T10:31:31;6.90;99.90
30186;DHT22;31152;49.190;8.122;2023-02-01T10:34:11;6.90;99.90
30186;DHT22;31152;49.190;8.122;2023-02-01T10:36:55;6.80;99.90
30186;DHT22;31152;49.190;8.122;2023-02-01T10:39:23;6.90;99.90
30186;DHT22;31152;49.190;8.122;2023-02-01T10:41:50;6.90;99.90
30186;DHT22;31152;49.190;8.122;2023-02-01T10:44:22;6.90;99.90
30186;DHT22;31152;49.190;8.122;2023-02-01T10:46:50;6.90;99.90
30186;DHT22;31152;49.190;8.122;2023-02-01T10:49:31;6.90;99.90
30186;DHT22;31152;49.190;8.122;2023-02-01T10:54:36;6.90;99.90
30186;DHT22;31152;49.190;8.122;2023-02-01T10:57:10;6.80;99.90
30186;DHT22;31152;49.190;8.122;2023-02-01T10:59:37;6.90;99.90
30186;DHT22;31152;49.190;8.122;2023-02-01T11:02:31;6.80;99.90
30186;DHT22;31152;49.190;8.122;2023-02-01T11:05:09;6.80;99.90
30186;DHT22;31152;49.190;8.122;2023-02-01T11:07:36;6.80;99.90
30186;DHT22;31152;49.190;8.122;2023-02-01T11:10:04;6.90;99.90
30186;DHT22;31152;49.190;8.122;2023-02-01T11:12:36;6.80;99.90
30186;DHT22;31152;49.190;8.122;2023-02-01T11:15:22;6.90;99.90
30186;DHT22;31152;49.190;8.122;2023-02-01T11:17:51;6.90;99.90
30186;DHT22;31152;49.190;8.122;2023-02-01T11:20:33;6.80;99.90
30186;DHT22;31152;49.190;8.122;2023-02-01T11:23:11;6.80;99.90
30186;DHT22;31152;49.190;8.122;2023-02-01T11:25:57;6.80;99.90
30186;DHT22;31152;49.190;8.122;2023-02-01T11:28:33;6.90;99.90
30186;DHT22;31152;49.190;8.122;2023-02-01T11:31:08;6.90;99.90
30186;DHT22;31152;49.190;8.122;2023-02-01T11:33:45;6.90;99.90
30186;DHT22;31152;49.190;8.122;2023-02-01T11:36:18;6.90;99.90
30186;DHT22;31152;49.190;8.122;2023-02-01T11:38:53;6.80;99.90
30186;DHT22;31152;49.190;8.122;2023-02-01T11:41:23;6.80;99.90
30186;DHT22;31152;49.190;8.122;2023-02-01T11:43:59;6.80;99.90
30186;DHT22;31152;49.190;8.122;2023-02-01T11:46:30;6.90;99.90
30186;DHT22;31152;49.190;8.122;2023-02-01T11:49:34;6.90;99.90
30186;DHT22;31152;49.190;8.122;2023-02-01T11:55:01;6.90;99.90
30186;DHT22;31152;49.190;8.122;2023-02-01T12:03:03;6.90;99.90
30186;DHT22;31152;49.190;8.122;2023-02-01T12:05:49;6.90;99.90
30186;DHT22;31152;49.190;8.122;2023-02-01T12:14:27;6.90;99.90
30186;DHT22;31152;49.190;8.122;2023-02-01T12:20:40;6.90;99.90
30186;DHT22;31152;49.190;8.122;2023-02-01T12:31:49;6.90;99.90
30186;DHT22;31152;49.190;8.122;2023-02-01T12:43:38;7.00;99.90
30186;DHT22;31152;49.190;8.122;2023-02-01T12:46:02;7.00;99.90
30186;DHT22;31152;49.190;8.122;2023-02-01T12:48:37;7.00;99.90
30186;DHT22;31152;49.190;8.122;2023-02-01T12:51:15;7.00;99.90
30186;DHT22;31152;49.190;8.122;2023-02-01T12:53:56;7.00;99.90
30186;DHT22;31152;49.190;8.122;2023-02-01T12:56:29;7.00;99.90
30186;DHT22;31152;49.190;8.122;2023-02-01T12:58:59;7.00;99.90
30186;DHT22;31152;49.190;8.122;2023-02-01T13:01:41;7.00;99.90
30186;DHT22;31152;49.190;8.122;2023-02-01T13:10:07;7.10;99.90
30186;DHT22;31152;49.190;8.122;2023-02-01T13:15:46;7.10;99.90
30186;DHT22;31152;49.190;8.122;2023-02-01T13:18:18;7.10;99.90
30186;DHT22;31152;49.190;8.122;2023-02-01T13:20:58;7.10;99.90
30186;DHT22;31152;49.190;8.122;2023-02-01T13:23:29;7.20;99.90
30186;DHT22;31152;49.190;8.122;2023-02-01T13:25:57;7.10;99.90
30186;DHT22;31152;49.190;8.122;2023-02-01T13:28:28;7.20;99.90
30186;DHT22;31152;49.190;8.122;2023-02-01T13:37:27;7.20;99.90
30186;DHT22;31152;49.190;8.122;2023-02-01T13:42:33;7.20;99.90
30186;DHT22;31152;49.190;8.122;2023-02-01T13:45:12;7.20;99.90
30186;DHT22;31152;49.190;8.122;2023-02-01T13:47:42;7.20;99.90
30186;DHT22;31152;49.190;8.122;2023-02-01T13:53:18;7.20;99.90
30186;DHT22;31152;49.190;8.122;2023-02-01T13:58:35;8.00;99.90
30186;DHT22;31152;49.190;8.122;2023-02-01T14:03:51;8.30;99.90
30186;DHT22;31152;49.190;8.122;2023-02-01T14:11:52;7.80;99.90
30186;DHT22;31152;49.190;8.122;2023-02-01T14:19:30;8.40;99.90
30186;DHT22;31152;49.190;8.122;2023-02-01T14:24:57;9.10;99.90
30186;DHT22;31152;49.190;8.122;2023-02-01T14:27:30;9.50;99.90
30186;DHT22;31152;49.190;8.122;2023-02-01T14:30:06;9.50;99.90
30186;DHT22;31152;49.190;8.122;2023-02-01T14:32:37;9.70;99.90
30186;DHT22;31152;49.190;8.122;2023-02-01T14:35:26;9.60;99.90
30186;DHT22;31152;49.190;8.122;2023-02-01T14:38:01;9.20;99.90
30186;DHT22;31152;49.190;8.122;2023-02-01T14:40:30;9.50;99.90
30186;DHT22;31152;49.190;8.122;2023-02-01T14:42:58;9.20;99.90
30186;DHT22;31152;49.190;8.122;2023-02-01T14:50:46;8.60;99.90
30186;DHT22;31152;49.190;8.122;2023-02-01T14:53:19;8.40;99.90
30186;DHT22;31152;49.190;8.122;2023-02-01T14:55:51;8.20;99.90
30186;DHT22;31152;49.190;8.122;2023-02-01T14:58:42;8.10;99.90
30186;DHT22;31152;49.190;8.122;2023-02-01T15:01:53;7.90;99.90
30186;DHT22;31152;49.190;8.122;2023-02-01T15:04:16;7.90;99.90
30186;DHT22;31152;49.190;8.122;2023-02-01T15:06:48;7.90;99.90
30186;DHT22;31152;49.190;8.122;2023-02-01T15:14:44;7.80;99.90
30186;DHT22;31152;49.190;8.122;2023-02-01T15:17:23;7.70;99.90
30186;DHT22;31152;49.190;8.122;2023-02-01T15:20:03;7.70;99.90
30186;DHT22;31152;49.190;8.122;2023-02-01T15:22:34;7.70;99.90
30186;DHT22;31152;49.190;8.122;2023-02-01T15:25:02;7.70;99.90
30186;DHT22;31152;49.190;8.122;2023-02-01T15:27:32;7.70;99.90
30186;DHT22;31152;49.190;8.122;2023-02-01T15:30:18;7.70;99.90
30186;DHT22;31152;49.190;8.122;2023-02-01T15:32:49;7.70;99.90
30186;DHT22;31152;49.190;8.122;2023-02-01T15:41:00;7.60;99.90
30186;DHT22;31152;49.190;8.122;2023-02-01T15:43:29;7.60;99.90
30186;DHT22;31152;49.190;8.122;2023-02-01T15:46:01;7.60;99.90
30186;DHT22;31152;49.190;8.122;2023-02-01T15:48:35;7.50;99.90
30186;DHT22;31152;49.190;8.122;2023-02-01T15:51:05;7.50;99.90
30186;DHT22;31152;49.190;8.122;2023-02-01T15:53:37;7.50;99.90
30186;DHT22;31152;49.190;8.122;2023-02-01T15:56:07;7.50;99.90
30186;DHT22;31152;49.190;8.122;2023-02-01T15:58:36;7.40;99.90
30186;DHT22;31152;49.190;8.122;2023-02-01T16:01:04;7.40;99.90
30186;DHT22;31152;49.190;8.122;2023-02-01T16:03:38;7.40;99.90
30186;DHT22;31152;49.190;8.122;2023-02-01T16:06:12;7.40;99.90
30186;DHT22;31152;49.190;8.122;2023-02-01T16:08:55;7.40;99.90
30186;DHT22;31152;49.190;8.122;2023-02-01T16:13:54;7.30;99.90
30186;DHT22;31152;49.190;8.122;2023-02-01T16:16:21;7.30;99.90
30186;DHT22;31152;49.190;8.122;2023-02-01T16:18:50;7.30;99.90
30186;DHT22;31152;49.190;8.122;2023-02-01T16:21:17;7.30;99.90
30186;DHT22;31152;49.190;8.122;2023-02-01T16:23:50;7.30;99.90
30186;DHT22;31152;49.190;8.122;2023-02-01T16:26:18;7.30;99.90
30186;DHT22;31152;49.190;8.122;2023-02-01T16:28:45;7.30;99.90
30186;DHT22;31152;49.190;8.122;2023-02-01T16:31:15;7.30;99.90
30186;DHT22;31152;49.190;8.122;2023-02-01T16:33:48;7.30;99.90
30186;DHT22;31152;49.190;8.122;2023-02-01T16:36:15;7.30;99.90
30186;DHT22;31152;49.190;8.122;2023-02-01T16:38:43;7.30;99.90
30186;DHT22;31152;49.190;8.122;2023-02-01T16:41:12;7.30;99.90
30186;DHT22;31152;49.190;8.122;2023-02-01T16:43:40;7.40;99.90
30186;DHT22;31152;49.190;8.122;2023-02-01T16:46:15;7.30;99.90
30186;DHT22;31152;49.190;8.122;2023-02-01T16:48:46;7.30;99.90
30186;DHT22;31152;49.190;8.122;2023-02-01T16:51:14;7.30;99.90
30186;DHT22;31152;49.190;8.122;2023-02-01T16:53:43;7.30;99.90
30186;DHT22;31152;49.190;8.122;2023-02-01T16:56:28;7.40;99.90
30186;DHT22;31152;49.190;8.122;2023-02-01T16:58:56;7.40;99.90
30186;DHT22;31152;49.190;8.122;2023-02-01T17:01:23;7.30;99.90
30186;DHT22;31152;49.190;8.122;2023-02-01T17:03:53;7.30;99.90
30186;DHT22;31152;49.190;8.122;2023-02-01T17:06:22;7.30;99.90
30186;DHT22;31152;49.190;8.122;2023-02-01T17:08:52;7.30;99.90
30186;DHT22;31152;49.190;8.122;2023-02-01T17:11:22;7.30;99.90
30186;DHT22;31152;49.190;8.122;2023-02-01T17:13:49;7.20;99.90
30186;DHT22;31152;49.190;8.122;2023-02-01T17:16:25;7.20;99.90
30186;DHT22;31152;49.190;8.122;2023-02-01T17:18:59;7.20;99.90
30186;DHT22;31152;49.190;8.122;2023-02-01T17:21:30;7.20;99.90
30186;DHT22;31152;49.190;8.122;2023-02-01T17:24:04;7.10;99.90
30186;DHT22;31152;49.190;8.122;2023-02-01T17:26:31;7.10;99.90
30186;DHT22;31152;49.190;8.122;2023-02-01T17:29:03;7.00;99.90
30186;DHT22;31152;49.190;8.122;2023-02-01T17:31:32;7.00;99.90
30186;DHT22;31152;49.190;8.122;2023-02-01T17:33:59;7.00;99.90
30186;DHT22;31152;49.190;8.122;2023-02-01T17:36:28;6.90;99.90
30186;DHT22;31152;49.190;8.122;2023-02-01T17:38:55;6.90;99.90
30186;DHT22;31152;49.190;8.122;2023-02-01T17:41:32;6.90;99.90
30186;DHT22;31152;49.190;8.122;2023-02-01T17:43:59;6.90;99.90
30186;DHT22;31152;49.190;8.122;2023-02-01T17:46:26;6.80;99.90
30186;DHT22;31152;49.190;8.122;2023-02-01T17:48:54;6.80;99.90
30186;DHT22;31152;49.190;8.122;2023-02-01T17:51:23;6.80;99.90
30186;DHT22;31152;49.190;8.122;2023-02-01T17:53:51;6.80;99.90
30186;DHT22;31152;49.190;8.122;2023-02-01T17:56:20;6.80;99.90
30186;DHT22;31152;49.190;8.122;2023-02-01T17:58:47;6.80;99.90
30186;DHT22;31152;49.190;8.122;2023-02-01T18:01:22;6.80;99.90
30186;DHT22;31152;49.190;8.122;2023-02-01T18:03:50;6.80;99.90
30186;DHT22;31152;49.190;8.122;2023-02-01T18:06:22;6.80;99.90
30186;DHT22;31152;49.190;8.122;2023-02-01T18:08:52;6.70;99.90
30186;DHT22;31152;49.190;8.122;2023-02-01T18:11:21;6.70;99.90
30186;DHT22;31152;49.190;8.122;2023-02-01T18:13:49;6.80;99.90
30186;DHT22;31152;49.190;8.122;2023-02-01T18:16:25;6.80;99.90
30186;DHT22;31152;49.190;8.122;2023-02-01T18:18:54;6.80;99.90
30186;DHT22;31152;49.190;8.122;2023-02-01T18:21:42;6.80;99.90
30186;DHT22;31152;49.190;8.122;2023-02-01T18:24:12;6.80;99.90
30186;DHT22;31152;49.190;8.122;2023-02-01T18:26:40;6.80;99.90